Time;durP1;ratioP1;P1;durP2;ratioP2;P2;SDS_P1;SDS_P2;PMS_P1;PMS_P2;Temp;Humidity;BMP_temperature;BMP_pressure;BME280_temperature;BME280_humidity;BME280_pressure;Samples;Min_cycle;Max_cycle;Signal;HPM_P1;HPM_P2
2022/10/04 00:02:02;;;;;;;1999.90;999.90;;;11.70;99.90;;;;;;5112827;28;20047;-64
2022/10/04 00:04:42;;;;;;;1999.90;999.90;;;11.70;99.90;;;;;;5090706;28;20048;-64
2022/10/04 00:07:11;;;;;;;1999.90;999.90;;;11.60;99.90;;;;;;5105762;28;20390;-64
2022/10/04 00:09:54;;;;;;;1999.90;999.90;;;11.70;99.90;;;;;;5109799;28;20045;-64
2022/10/04 00:12:27;;;;;;;1999.90;999.90;;;11.60;99.90;;;;;;5106642;28;20126;-64
2022/10/04 00:14:57;;;;;;;1999.90;999.90;;;11.60;99.90;;;;;;5088224;28;20039;-64
2022/10/04 00:17:26;;;;;;;1999.90;999.90;;;11.60;99.90;;;;;;5104794;28;20051;-64
2022/10/04 00:19:52;;;;;;;1999.90;999.90;;;11.60;99.90;;;;;;5092327;27;20035;-64
2022/10/04 00:22:22;;;;;;;1999.90;999.90;;;11.60;99.90;;;;;;5078008;28;20469;-64
2022/10/04 00:25:18;;;;;;;1999.90;999.90;;;11.60;99.90;;;;;;5110537;28;20436;-64
2022/10/04 00:28:26;;;;;;;1999.90;999.90;;;11.60;99.90;;;;;;5091609;28;20067;-64
2022/10/04 00:31:09;;;;;;;1999.90;999.90;;;11.60;99.90;;;;;;5107874;27;20075;-64
2022/10/04 00:33:34;;;;;;;1999.90;999.90;;;11.60;99.90;;;;;;5091952;28;20043;-64
2022/10/04 00:36:00;;;;;;;1999.90;999.90;;;11.50;99.90;;;;;;5091290;28;20594;-64
2022/10/04 00:38:27;;;;;;;1999.90;999.90;;;11.50;99.90;;;;;;5109576;27;20040;-64
2022/10/04 00:41:04;;;;;;;1999.90;999.90;;;11.50;99.90;;;;;;5102457;28;22111;-64
2022/10/04 00:43:41;;;;;;;1999.90;999.90;;;11.40;99.90;;;;;;5101514;28;20043;-64
2022/10/04 00:46:13;;;;;;;1999.90;999.90;;;11.40;99.90;;;;;;5091019;28;20056;-64
2022/10/04 00:48:53;;;;;;;1999.90;999.90;;;11.40;99.90;;;;;;5113839;27;20070;-64
2022/10/04 00:51:26;;;;;;;1999.90;999.90;;;11.40;99.90;;;;;;5102242;28;20289;-64
2022/10/04 00:54:12;;;;;;;1999.90;999.90;;;11.30;99.90;;;;;;5110258;27;20043;-64
2022/10/04 00:56:54;;;;;;;1999.90;999.90;;;11.30;99.90;;;;;;5098433;27;20466;-64
2022/10/04 00:59:53;;;;;;;1999.90;999.90;;;11.30;99.90;;;;;;5091143;28;20446;-64
2022/10/04 01:02:22;;;;;;;1999.90;999.90;;;11.30;99.90;;;;;;5110169;27;20040;-64
2022/10/04 01:04:59;;;;;;;1999.90;999.90;;;11.30;99.90;;;;;;5110681;28;20370;-64
2022/10/04 01:07:47;;;;;;;1999.90;999.90;;;11.30;99.90;;;;;;5090830;28;20073;-64
2022/10/04 01:10:23;;;;;;;1999.90;999.90;;;11.20;99.90;;;;;;5110141;27;20042;-64
2022/10/04 01:13:11;;;;;;;1999.90;999.90;;;11.20;99.90;;;;;;5108889;27;20439;-64
2022/10/04 01:15:55;;;;;;;1999.90;999.90;;;11.20;99.90;;;;;;5109030;27;20489;-65
2022/10/04 01:18:20;;;;;;;1999.90;999.90;;;11.20;99.90;;;;;;5085217;28;20424;-64
2022/10/04 01:20:53;;;;;;;1999.90;999.90;;;11.20;99.90;;;;;;5110364;27;20055;-64
2022/10/04 01:23:45;;;;;;;1999.90;999.90;;;11.30;99.90;;;;;;5085046;28;20035;-64
2022/10/04 01:26:29;;;;;;;1999.90;999.90;;;11.30;99.90;;;;;;5108009;27;20089;-64
2022/10/04 01:29:08;;;;;;;1999.90;999.90;;;11.40;99.90;;;;;;5104211;28;20281;-64
2022/10/04 01:31:39;;;;;;;1999.90;999.90;;;11.40;99.90;;;;;;5108464;28;20045;-64
2022/10/04 01:34:05;;;;;;;1999.90;999.90;;;11.40;99.90;;;;;;5102401;27;20100;-63
2022/10/04 01:36:33;;;;;;;1999.90;999.90;;;11.40;99.90;;;;;;5077382;28;20438;-64
2022/10/04 01:38:59;;;;;;;1999.90;999.90;;;11.40;99.90;;;;;;5089527;28;20043;-64
2022/10/04 01:41:37;;;;;;;1999.90;999.90;;;11.50;99.90;;;;;;5123588;27;20129;-64
2022/10/04 01:44:07;;;;;;;1999.90;999.90;;;11.50;99.90;;;;;;5111511;27;20446;-64
2022/10/04 01:46:36;;;;;;;1999.90;999.90;;;11.50;99.90;;;;;;5089660;28;20154;-64
2022/10/04 01:49:15;;;;;;;1999.90;999.90;;;11.50;99.90;;;;;;5102634;28;20485;-64
2022/10/04 01:51:53;;;;;;;1999.90;999.90;;;11.50;99.90;;;;;;5111912;27;20044;-64
2022/10/04 01:54:22;;;;;;;1999.90;999.90;;;11.50;99.90;;;;;;5109931;28;20055;-64
2022/10/04 01:57:14;;;;;;;1999.90;999.90;;;11.50;99.90;;;;;;5090120;28;20036;-64
2022/10/04 02:00:09;;;;;;;1999.90;999.90;;;11.50;99.90;;;;;;5092832;28;20052;-64
2022/10/04 02:02:42;;;;;;;1999.90;999.90;;;11.50;99.90;;;;;;5096309;28;20063;-64
2022/10/04 02:05:14;;;;;;;1999.90;999.90;;;11.40;99.90;;;;;;5106304;28;20036;-64
2022/10/04 02:07:40;;;;;;;1999.90;999.90;;;11.40;99.90;;;;;;5090763;28;20043;-64
2022/10/04 02:10:11;;;;;;;1999.90;999.90;;;11.40;99.90;;;;;;5106888;28;20097;-64
2022/10/04 02:12:43;;;;;;;1999.90;999.90;;;11.40;99.90;;;;;;5108717;28;20088;-64
2022/10/04 02:15:10;;;;;;;1999.90;999.90;;;11.40;99.90;;;;;;5089697;28;20047;-64
2022/10/04 02:17:41;;;;;;;1999.90;999.90;;;11.40;99.90;;;;;;5109065;28;20107;-64
2022/10/04 02:20:17;;;;;;;1999.90;999.90;;;11.40;99.90;;;;;;5089631;28;20036;-63
2022/10/04 02:22:45;;;;;;;1999.90;999.90;;;11.30;99.90;;;;;;5109393;28;20080;-64
2022/10/04 02:25:13;;;;;;;1999.90;999.90;;;11.30;99.90;;;;;;5108459;27;20043;-64
2022/10/04 02:27:38;;;;;;;1999.90;999.90;;;11.30;99.90;;;;;;5108249;28;20061;-64
2022/10/04 02:30:10;;;;;;;1999.90;999.90;;;11.20;99.90;;;;;;5089391;28;20040;-64
2022/10/04 02:35:45;;;;;;;1999.90;999.90;;;11.10;99.90;;;;;;5095128;28;20074;-64
2022/10/04 02:38:23;;;;;;;1999.90;999.90;;;11.10;99.90;;;;;;5082021;28;20596;-64
2022/10/04 02:41:02;;;;;;;1999.90;999.90;;;11.00;99.90;;;;;;5111829;27;20305;-64
2022/10/04 02:43:56;;;;;;;1999.90;999.90;;;11.00;99.90;;;;;;5107169;27;20039;-64
2022/10/04 02:46:24;;;;;;;1999.90;999.90;;;10.90;99.90;;;;;;5079820;28;20521;-64
2022/10/04 02:48:58;;;;;;;1999.90;999.90;;;10.90;99.90;;;;;;5089742;28;20481;-64
2022/10/04 02:51:32;;;;;;;1999.90;999.90;;;10.90;99.90;;;;;;5088088;28;20047;-64
2022/10/04 02:54:21;;;;;;;1999.90;999.90;;;10.80;99.90;;;;;;5108328;28;20036;-64
2022/10/04 02:56:52;;;;;;;1999.90;999.90;;;10.80;99.90;;;;;;5108434;28;20050;-64
2022/10/04 02:59:18;;;;;;;1999.90;999.90;;;10.80;99.90;;;;;;5108198;28;20488;-64
2022/10/04 03:01:56;;;;;;;1999.90;999.90;;;10.80;99.90;;;;;;5106963;28;20047;-64
2022/10/04 03:04:28;;;;;;;1999.90;999.90;;;10.70;99.90;;;;;;5107221;28;20035;-63
2022/10/04 03:06:56;;;;;;;1999.90;999.90;;;10.70;99.90;;;;;;5106035;28;20541;-64
2022/10/04 03:09:23;;;;;;;1999.90;999.90;;;10.60;99.90;;;;;;5108557;28;20122;-64
2022/10/04 03:11:50;;;;;;;1999.90;999.90;;;10.60;99.90;;;;;;5106752;28;20036;-64
2022/10/04 03:14:20;;;;;;;1999.90;999.90;;;10.60;99.90;;;;;;5098132;28;20051;-64
2022/10/04 03:16:49;;;;;;;1999.90;999.90;;;10.60;99.90;;;;;;5090125;28;20107;-64
2022/10/04 03:19:18;;;;;;;1999.90;999.90;;;10.60;99.90;;;;;;5094786;28;20044;-64
2022/10/04 03:21:46;;;;;;;1999.90;999.90;;;10.60;99.90;;;;;;5092704;28;20043;-64
2022/10/04 03:24:23;;;;;;;1999.90;999.90;;;10.60;99.90;;;;;;5087305;28;20485;-64
2022/10/04 03:26:55;;;;;;;1999.90;999.90;;;10.60;99.90;;;;;;5077356;28;20093;-64
2022/10/04 03:29:23;;;;;;;1999.90;999.90;;;10.60;99.90;;;;;;5094827;28;20059;-64
2022/10/04 03:31:54;;;;;;;1999.90;999.90;;;10.60;99.90;;;;;;5087124;28;20097;-64
2022/10/04 03:34:25;;;;;;;1999.90;999.90;;;10.60;99.90;;;;;;5107720;28;20040;-64
2022/10/04 03:36:55;;;;;;;1999.90;999.90;;;10.50;99.90;;;;;;5107126;28;20048;-64
2022/10/04 03:39:39;;;;;;;1999.90;999.90;;;10.50;99.90;;;;;;5088466;28;20055;-64
2022/10/04 03:42:19;;;;;;;1999.90;999.90;;;10.50;99.90;;;;;;5116400;28;20050;-64
2022/10/04 03:44:47;;;;;;;1999.90;999.90;;;10.50;99.90;;;;;;5086767;28;20059;-64
2022/10/04 03:47:16;;;;;;;1999.90;999.90;;;10.50;99.90;;;;;;5109965;28;20036;-64
2022/10/04 03:49:44;;;;;;;1999.90;999.90;;;10.50;99.90;;;;;;5114637;28;20376;-64
2022/10/04 03:52:21;;;;;;;1999.90;999.90;;;10.40;99.90;;;;;;5100838;28;20039;-64
2022/10/04 03:54:50;;;;;;;1999.90;999.90;;;10.40;99.90;;;;;;5109569;28;20051;-63
2022/10/04 03:57:16;;;;;;;1999.90;999.90;;;10.40;99.90;;;;;;5090739;27;20054;-64
2022/10/04 03:59:42;;;;;;;1999.90;999.90;;;10.40;99.90;;;;;;5120487;27;20043;-64
2022/10/04 04:02:40;;;;;;;1999.90;999.90;;;10.30;99.90;;;;;;5113391;27;20385;-64
2022/10/04 04:05:09;;;;;;;1999.90;999.90;;;10.40;99.90;;;;;;5104686;27;20047;-64
2022/10/04 04:07:44;;;;;;;1999.90;999.90;;;10.30;99.90;;;;;;5089301;27;20031;-64
2022/10/04 04:10:28;;;;;;;1999.90;999.90;;;10.30;99.90;;;;;;5102588;27;20071;-64
2022/10/04 04:13:10;;;;;;;1999.90;999.90;;;10.20;99.90;;;;;;5081938;27;20122;-64
2022/10/04 04:15:42;;;;;;;1999.90;999.90;;;10.20;99.90;;;;;;5109387;28;20291;-64
2022/10/04 04:18:24;;;;;;;1999.90;999.90;;;10.20;99.90;;;;;;5093014;28;20047;-64
2022/10/04 04:20:53;;;;;;;1999.90;999.90;;;10.20;99.90;;;;;;5106191;28;20024;-64
2022/10/04 04:23:33;;;;;;;1999.90;999.90;;;10.20;99.90;;;;;;5086431;28;20092;-64
2022/10/04 04:26:19;;;;;;;1999.90;999.90;;;10.20;99.90;;;;;;5091397;28;20115;-64
2022/10/04 04:28:52;;;;;;;1999.90;999.90;;;10.20;99.90;;;;;;5087620;28;20071;-63
2022/10/04 04:31:22;;;;;;;1999.90;999.90;;;10.20;99.90;;;;;;5092788;28;20051;-64
2022/10/04 04:34:03;;;;;;;1999.90;999.90;;;10.20;99.90;;;;;;5110975;28;20040;-64
2022/10/04 04:36:37;;;;;;;1999.90;999.90;;;10.10;99.90;;;;;;5087929;28;20103;-63
2022/10/04 04:41:51;;;;;;;1999.90;999.90;;;10.10;99.90;;;;;;5108637;28;20418;-64
2022/10/04 04:44:17;;;;;;;1999.90;999.90;;;10.10;99.90;;;;;;5110545;28;20127;-63
2022/10/04 04:46:46;;;;;;;1999.90;999.90;;;10.10;99.90;;;;;;5108335;27;20484;-64
2022/10/04 04:49:16;;;;;;;1999.90;999.90;;;10.10;99.90;;;;;;5111215;28;20051;-64
2022/10/04 04:51:48;;;;;;;1999.90;999.90;;;10.10;99.90;;;;;;5105264;27;20040;-63
2022/10/04 04:54:16;;;;;;;1999.90;999.90;;;10.10;99.90;;;;;;5097179;28;20040;-63
2022/10/04 04:56:43;;;;;;;1999.90;999.90;;;10.00;99.90;;;;;;5110151;27;20386;-64
2022/10/04 04:59:10;;;;;;;1999.90;999.90;;;10.00;99.90;;;;;;5100368;28;20082;-63
2022/10/04 05:01:47;;;;;;;1999.90;999.90;;;10.00;99.90;;;;;;5111026;27;20038;-64
2022/10/04 05:04:15;;;;;;;1999.90;999.90;;;10.00;99.90;;;;;;5107178;27;20046;-64
2022/10/04 05:06:47;;;;;;;1999.90;999.90;;;10.00;99.90;;;;;;5096640;28;20087;-64
2022/10/04 05:09:29;;;;;;;1999.90;999.90;;;10.00;99.90;;;;;;5090432;28;20066;-63
2022/10/04 05:12:01;;;;;;;1999.90;999.90;;;10.00;99.90;;;;;;5082599;28;20044;-63
2022/10/04 05:14:30;;;;;;;1999.90;999.90;;;9.90;99.90;;;;;;5109446;28;20093;-64
2022/10/04 05:16:56;;;;;;;1999.90;999.90;;;10.00;99.90;;;;;;5105687;28;20070;-64
2022/10/04 05:19:29;;;;;;;1999.90;999.90;;;9.90;99.90;;;;;;5108840;28;20476;-63
2022/10/04 05:21:58;;;;;;;1999.90;999.90;;;9.90;99.90;;;;;;5109704;27;20076;-64
2022/10/04 05:24:33;;;;;;;1999.90;999.90;;;9.90;99.90;;;;;;5097910;27;20043;-63
2022/10/04 05:27:06;;;;;;;1999.90;999.90;;;9.80;99.90;;;;;;5091497;28;20118;-64
2022/10/04 05:29:38;;;;;;;1999.90;999.90;;;9.80;99.90;;;;;;5098790;28;20844;-64
2022/10/04 05:32:27;;;;;;;1999.90;999.90;;;9.70;99.90;;;;;;5101355;28;20066;-63
2022/10/04 05:34:54;;;;;;;1999.90;999.90;;;9.70;99.90;;;;;;5108896;28;20055;-64
2022/10/04 05:37:47;;;;;;;1999.90;999.90;;;9.70;99.90;;;;;;5113112;27;20039;-64
2022/10/04 05:40:32;;;;;;;1999.90;999.90;;;9.70;99.90;;;;;;5110114;27;20077;-64
2022/10/04 05:42:58;;;;;;;1999.90;999.90;;;9.70;99.90;;;;;;5104465;28;20051;-64
2022/10/04 05:45:29;;;;;;;1999.90;999.90;;;9.70;99.90;;;;;;5092267;28;20043;-64
2022/10/04 05:47:57;;;;;;;1999.90;999.90;;;9.60;99.90;;;;;;5109953;27;20075;-63
2022/10/04 05:50:32;;;;;;;1999.90;999.90;;;9.60;99.90;;;;;;5091265;28;20134;-63
2022/10/04 05:53:19;;;;;;;1999.90;999.90;;;9.60;99.90;;;;;;5092437;28;20043;-64
2022/10/04 05:55:54;;;;;;;1999.90;999.90;;;9.60;99.90;;;;;;5123897;27;20078;-64
2022/10/04 05:58:47;;;;;;;1999.90;999.90;;;9.60;99.90;;;;;;5109371;28;20047;-63
2022/10/04 06:01:19;;;;;;;1999.90;999.90;;;9.60;99.90;;;;;;5098626;27;20046;-63
2022/10/04 06:04:08;;;;;;;1999.90;999.90;;;9.60;99.90;;;;;;5110415;27;20492;-63
2022/10/04 06:06:45;;;;;;;1999.90;999.90;;;9.60;99.90;;;;;;5081273;28;20075;-63
2022/10/04 06:09:24;;;;;;;1999.90;999.90;;;9.60;99.90;;;;;;5108163;27;20088;-64
2022/10/04 06:12:26;;;;;;;1999.90;999.90;;;9.60;99.90;;;;;;5118381;27;20046;-64
2022/10/04 06:15:04;;;;;;;1999.90;999.90;;;9.60;99.90;;;;;;5085253;28;20488;-63
2022/10/04 06:17:47;;;;;;;1999.90;999.90;;;9.70;99.90;;;;;;5108884;28;20043;-64
2022/10/04 06:20:51;;;;;;;1999.90;999.90;;;9.70;99.90;;;;;;5100419;28;20514;-63
2022/10/04 06:23:17;;;;;;;1999.90;999.90;;;9.80;99.90;;;;;;5103378;27;20493;-64
2022/10/04 06:26:02;;;;;;;1999.90;999.90;;;9.90;99.90;;;;;;5091268;28;20468;-64
2022/10/04 06:28:41;;;;;;;1999.90;999.90;;;10.00;99.90;;;;;;5072012;28;20503;-63
2022/10/04 06:31:17;;;;;;;1999.90;999.90;;;10.00;99.90;;;;;;5087056;28;20489;-64
2022/10/04 06:33:45;;;;;;;1999.90;999.90;;;10.20;99.90;;;;;;5072283;28;20032;-63
2022/10/04 06:36:39;;;;;;;1999.90;999.90;;;10.20;99.90;;;;;;5084780;28;20046;-64
2022/10/04 06:39:29;;;;;;;1999.90;999.90;;;10.30;99.90;;;;;;5082587;28;20048;-63
2022/10/04 06:42:21;;;;;;;1999.90;999.90;;;10.40;99.90;;;;;;5107670;28;20499;-64
2022/10/04 06:44:51;;;;;;;1999.90;999.90;;;10.50;99.90;;;;;;5101512;28;20122;-63
2022/10/04 06:47:43;;;;;;;1999.90;999.90;;;10.60;99.90;;;;;;5084468;28;20047;-64
2022/10/04 06:50:42;;;;;;;1999.90;999.90;;;10.70;99.90;;;;;;5104664;28;20309;-63
2022/10/04 06:53:16;;;;;;;1999.90;999.90;;;10.70;99.90;;;;;;5085411;28;20051;-64
2022/10/04 06:55:45;;;;;;;1999.90;999.90;;;10.80;99.90;;;;;;5102862;28;20043;-64
2022/10/04 06:58:32;;;;;;;1999.90;999.90;;;10.80;99.90;;;;;;5108668;27;20063;-64
2022/10/04 07:01:09;;;;;;;1999.90;999.90;;;10.90;99.90;;;;;;5098940;28;20242;-64
2022/10/04 07:04:04;;;;;;;1999.90;999.90;;;10.90;99.90;;;;;;5095113;28;20078;-64
2022/10/04 07:06:39;;;;;;;1999.90;999.90;;;10.90;99.90;;;;;;5105577;27;20047;-64
2022/10/04 07:09:13;;;;;;;1999.90;999.90;;;11.00;99.90;;;;;;5074391;28;20133;-64
2022/10/04 07:11:51;;;;;;;1999.90;999.90;;;11.00;99.90;;;;;;5101167;28;20514;-63
2022/10/04 07:14:46;;;;;;;1999.90;999.90;;;11.30;99.90;;;;;;5103119;28;20050;-64
2022/10/04 07:17:19;;;;;;;1999.90;999.90;;;11.40;99.90;;;;;;5099380;28;20063;-63
2022/10/04 07:19:47;;;;;;;1999.90;999.90;;;11.50;99.90;;;;;;5085750;28;20128;-64
2022/10/04 07:22:27;;;;;;;1999.90;999.90;;;11.60;99.90;;;;;;5104755;28;20519;-64
2022/10/04 07:24:55;;;;;;;1999.90;999.90;;;11.60;99.90;;;;;;5072198;28;20047;-64
2022/10/04 07:27:33;;;;;;;1999.90;999.90;;;11.70;99.90;;;;;;5088700;28;20118;-63
2022/10/04 07:30:04;;;;;;;1999.90;999.90;;;11.80;99.90;;;;;;5075430;28;20455;-64
2022/10/04 07:32:49;;;;;;;1999.90;999.90;;;12.00;99.90;;;;;;5079332;28;20099;-64
2022/10/04 07:35:32;;;;;;;1999.90;999.90;;;12.10;99.90;;;;;;5085982;28;20047;-63
2022/10/04 07:38:17;;;;;;;1999.90;999.90;;;12.30;99.90;;;;;;5112538;27;20105;-64
2022/10/04 07:41:15;;;;;;;1999.90;999.90;;;12.60;99.90;;;;;;5112458;28;20047;-64
2022/10/04 07:44:20;;;;;;;1999.90;999.90;;;12.80;99.90;;;;;;5109909;28;20043;-64
2022/10/04 07:46:57;;;;;;;1999.90;999.90;;;13.00;99.90;;;;;;5092818;28;20123;-64
2022/10/04 07:49:23;;;;;;;1999.90;999.90;;;13.00;99.90;;;;;;5110789;28;20059;-64
2022/10/04 07:52:11;;;;;;;1999.90;999.90;;;13.00;99.90;;;;;;5109876;27;20085;-64
2022/10/04 07:54:53;;;;;;;1999.90;999.90;;;13.00;99.90;;;;;;5111108;27;20123;-64
2022/10/04 07:57:28;;;;;;;1999.90;999.90;;;13.00;99.90;;;;;;5102624;28;20040;-64
2022/10/04 08:00:16;;;;;;;1999.90;999.90;;;13.10;99.90;;;;;;5072167;28;20086;-64
2022/10/04 08:03:00;;;;;;;1999.90;999.90;;;13.10;99.90;;;;;;5082929;28;20032;-64
2022/10/04 08:05:41;;;;;;;1999.90;999.90;;;13.10;99.90;;;;;;5097571;28;20040;-64
2022/10/04 08:08:16;;;;;;;1999.90;999.90;;;13.10;99.90;;;;;;5111734;28;20039;-64
2022/10/04 08:11:13;;;;;;;1999.90;999.90;;;13.10;99.90;;;;;;5111013;28;20365;-64
2022/10/04 08:13:50;;;;;;;1999.90;999.90;;;13.00;99.90;;;;;;5109101;28;20039;-64
2022/10/04 08:16:45;;;;;;;1999.90;999.90;;;13.00;99.90;;;;;;5086813;28;20130;-64
2022/10/04 08:19:34;;;;;;;1999.90;999.90;;;13.10;99.90;;;;;;5109096;28;20062;-64
2022/10/04 08:22:21;;;;;;;1999.90;999.90;;;13.40;99.90;;;;;;5072162;28;20036;-64
2022/10/04 08:25:05;;;;;;;1999.90;999.90;;;13.60;99.90;;;;;;5109047;27;20706;-64
2022/10/04 08:31:08;;;;;;;1999.90;999.90;;;14.20;99.90;;;;;;5104118;27;20071;-64
2022/10/04 08:34:00;;;;;;;1999.90;999.90;;;14.40;99.90;;;;;;5107888;28;20080;-64
2022/10/04 08:36:54;;;;;;;1999.90;999.90;;;15.20;99.90;;;;;;5092436;28;20063;-64
2022/10/04 08:39:55;;;;;;;1999.90;999.90;;;16.20;99.90;;;;;;5104530;28;20048;-64
2022/10/04 08:43:02;;;;;;;1999.90;999.90;;;16.90;99.90;;;;;;5087767;28;20213;-64
2022/10/04 08:45:59;;;;;;;1999.90;999.90;;;17.50;99.90;;;;;;5108989;28;20052;-64
2022/10/04 08:48:52;;;;;;;1999.90;999.90;;;18.00;99.90;;;;;;5113023;27;20449;-64
2022/10/04 08:51:38;;;;;;;1999.90;999.90;;;18.40;99.90;;;;;;5110688;27;20530;-64
2022/10/04 08:54:28;;;;;;;1999.90;999.90;;;18.90;99.90;;;;;;5090228;28;20419;-65
2022/10/04 08:57:23;;;;;;;1999.90;999.90;;;18.90;99.90;;;;;;5088195;28;20084;-64
2022/10/04 09:00:19;;;;;;;1999.90;999.90;;;19.10;99.90;;;;;;5109385;28;20061;-64
2022/10/04 09:02:46;;;;;;;1999.90;999.90;;;19.10;99.90;;;;;;5099973;27;20035;-64
2022/10/04 09:05:35;;;;;;;1999.90;999.90;;;19.00;99.90;;;;;;5106794;27;20036;-64
2022/10/04 09:08:31;;;;;;;1999.90;999.90;;;19.20;99.90;;;;;;5108857;27;20067;-64
2022/10/04 09:11:04;;;;;;;1999.90;999.90;;;19.30;99.90;;;;;;5107262;27;20122;-65
2022/10/04 09:13:30;;;;;;;1999.90;999.90;;;19.60;99.90;;;;;;5071304;28;20044;-64
2022/10/04 09:16:18;;;;;;;1999.90;999.90;;;19.70;99.90;;;;;;5103070;28;20043;-64
2022/10/04 09:18:48;;;;;;;1999.90;999.90;;;19.70;99.90;;;;;;5089483;28;20488;-65
2022/10/04 09:21:26;;;;;;;1999.90;999.90;;;19.80;99.90;;;;;;5089556;28;20065;-65
2022/10/04 09:23:54;;;;;;;1999.90;999.90;;;19.80;99.90;;;;;;5105896;28;20106;-65
2022/10/04 09:26:31;;;;;;;1999.90;999.90;;;19.50;99.90;;;;;;5104885;27;20048;-64
2022/10/04 09:29:17;;;;;;;1999.90;999.90;;;19.20;99.90;;;;;;5125756;27;20660;-65
2022/10/04 09:32:27;;;;;;;1999.90;999.90;;;19.10;99.90;;;;;;5089270;28;20039;-65
2022/10/04 09:35:02;;;;;;;1999.90;999.90;;;18.90;99.90;;;;;;5097001;28;20084;-65
2022/10/04 09:37:40;;;;;;;1999.90;999.90;;;18.80;99.90;;;;;;5090968;28;20079;-65
2022/10/04 09:40:43;;;;;;;1999.90;999.90;;;18.70;99.90;;;;;;5097864;28;20550;-65
2022/10/04 09:43:35;;;;;;;1999.90;999.90;;;18.80;99.90;;;;;;5091127;28;20032;-65
2022/10/04 09:46:15;;;;;;;1999.90;999.90;;;19.10;99.90;;;;;;5109333;27;20458;-65
2022/10/04 09:49:15;;;;;;;1999.90;999.90;;;19.00;99.90;;;;;;5104911;28;20051;-65
2022/10/04 09:52:00;;;;;;;1999.90;999.90;;;18.90;99.90;;;;;;5103869;28;20070;-65
2022/10/04 09:54:48;;;;;;;1999.90;999.90;;;19.00;99.90;;;;;;5108364;28;20056;-65
2022/10/04 09:57:26;;;;;;;1999.90;999.90;;;18.80;99.90;;;;;;5107131;27;20050;-64
2022/10/04 10:00:01;;;;;;;1999.90;999.90;;;18.50;99.90;;;;;;5088844;28;20052;-65
2022/10/04 10:02:42;;;;;;;1999.90;999.90;;;18.40;99.90;;;;;;5089722;28;20070;-65
2022/10/04 10:05:14;;;;;;;1999.90;999.90;;;18.40;99.90;;;;;;5108906;28;20050;-65
2022/10/04 10:07:48;;;;;;;1999.90;999.90;;;18.40;99.90;;;;;;5108315;27;20622;-65
2022/10/04 10:13:39;;;;;;;1999.90;999.90;;;18.40;99.90;;;;;;5098680;28;20047;-64
2022/10/04 10:16:24;;;;;;;1999.90;999.90;;;18.40;99.90;;;;;;5092998;27;20048;-65
2022/10/04 10:19:11;;;;;;;1999.90;999.90;;;18.40;99.90;;;;;;5106777;28;20048;-65
2022/10/04 10:21:59;;;;;;;1999.90;999.90;;;18.40;99.90;;;;;;5108904;28;20046;-65
2022/10/04 10:24:42;;;;;;;1999.90;999.90;;;18.40;99.90;;;;;;5097744;28;20048;-64
2022/10/04 10:27:23;;;;;;;1999.90;999.90;;;18.40;99.90;;;;;;5076122;28;20043;-65
2022/10/04 10:30:21;;;;;;;1999.90;999.90;;;18.40;99.90;;;;;;5090066;28;20115;-65
2022/10/04 10:33:21;;;;;;;1999.90;999.90;;;18.40;99.90;;;;;;5088636;27;20043;-64
2022/10/04 10:36:16;;;;;;;1999.90;999.90;;;18.50;99.90;;;;;;5088505;28;20055;-65
2022/10/04 10:38:56;;;;;;;1999.90;999.90;;;18.50;99.90;;;;;;5107127;28;20468;-65
2022/10/04 10:41:58;;;;;;;1999.90;999.90;;;18.60;99.90;;;;;;5097758;28;20039;-65
2022/10/04 10:44:33;;;;;;;1999.90;999.90;;;18.50;99.90;;;;;;5101060;27;20055;-65
2022/10/04 10:47:17;;;;;;;1999.90;999.90;;;18.50;99.90;;;;;;5108469;27;20039;-65
2022/10/04 10:50:02;;;;;;;1999.90;999.90;;;18.30;99.90;;;;;;5107982;28;20073;-65
2022/10/04 10:53:06;;;;;;;1999.90;999.90;;;18.40;99.90;;;;;;5096146;28;20047;-65
2022/10/04 10:56:07;;;;;;;1999.90;999.90;;;18.50;99.90;;;;;;5109443;27;20453;-65
2022/10/04 10:59:00;;;;;;;1999.90;999.90;;;18.50;99.90;;;;;;5106938;28;20499;-65
2022/10/04 11:01:38;;;;;;;;;;;18.30;99.90;;;;;;5100163;28;20072;-65
2022/10/04 11:04:37;;;;;;;1999.90;999.90;;;18.30;99.90;;;;;;5107641;28;19973;-65
2022/10/04 11:07:12;;;;;;;1999.90;999.90;;;18.20;99.90;;;;;;5093345;28;20040;-65
2022/10/04 11:09:58;;;;;;;1999.90;999.90;;;18.30;99.90;;;;;;5113920;27;20046;-65
2022/10/04 11:13:01;;;;;;;1999.90;999.90;;;18.40;99.90;;;;;;5088470;28;20054;-65
2022/10/04 11:16:07;;;;;;;1999.90;999.90;;;18.70;99.90;;;;;;5107512;28;20415;-65
2022/10/04 11:19:14;;;;;;;1999.90;999.90;;;18.90;99.90;;;;;;5088950;28;20039;-65
2022/10/04 11:22:17;;;;;;;1999.90;999.90;;;19.00;99.90;;;;;;5069653;28;20090;-65
2022/10/04 11:24:52;;;;;;;1999.90;999.90;;;19.10;99.90;;;;;;5096766;28;20043;-65
2022/10/04 11:27:42;;;;;;;1999.90;999.90;;;19.20;99.90;;;;;;5081182;28;20050;-65
2022/10/04 11:30:27;;;;;;;1999.90;999.90;;;19.20;99.90;;;;;;5107586;28;20055;-65
2022/10/04 11:33:20;;;;;;;1999.90;999.90;;;19.20;99.90;;;;;;5095719;28;20050;-64
2022/10/04 11:36:06;;;;;;;;;;;19.30;99.90;;;;;;5108206;28;20035;-65
2022/10/04 11:38:55;;;;;;;1999.90;999.90;;;19.40;99.90;;;;;;5071324;28;19974;-64
2022/10/04 11:41:39;;;;;;;1999.90;999.90;;;19.40;99.90;;;;;;5078270;28;20075;-65
2022/10/04 11:44:25;;;;;;;1999.90;999.90;;;19.20;99.90;;;;;;5105596;28;20054;-65
2022/10/04 11:47:12;;;;;;;1999.90;999.90;;;19.10;99.90;;;;;;5099624;28;20051;-65
2022/10/04 11:49:57;;;;;;;1999.90;999.90;;;19.00;99.90;;;;;;5090239;28;20130;-65
2022/10/04 11:52:36;;;;;;;1999.90;999.90;;;19.10;99.90;;;;;;5087024;28;20044;-65
2022/10/04 11:55:25;;;;;;;1999.90;999.90;;;19.20;99.90;;;;;;5089995;28;20139;-64
2022/10/04 11:57:57;;;;;;;1999.90;999.90;;;19.00;99.90;;;;;;5090391;28;20083;-64
2022/10/04 12:00:25;;;;;;;1999.90;999.90;;;19.00;99.90;;;;;;5079859;28;20408;-64
2022/10/04 12:03:19;;;;;;;1999.90;999.90;;;18.90;99.90;;;;;;5096110;28;20404;-64
2022/10/04 12:06:34;;;;;;;1999.90;999.90;;;18.90;99.90;;;;;;5104446;28;20494;-64
2022/10/04 12:09:10;;;;;;;1999.90;999.90;;;19.00;99.90;;;;;;5098541;28;20053;-65
2022/10/04 12:15:29;;;;;;;1999.90;999.90;;;19.00;99.90;;;;;;5107673;28;20051;-64
2022/10/04 12:18:27;;;;;;;1999.90;999.90;;;18.70;99.90;;;;;;5112629;27;20054;-64
2022/10/04 12:21:33;;;;;;;1999.90;999.90;;;18.60;99.90;;;;;;5107042;28;20075;-65
2022/10/04 12:24:17;;;;;;;1999.90;999.90;;;18.50;99.90;;;;;;5085483;28;20456;-64
2022/10/04 12:27:09;;;;;;;1999.90;999.90;;;18.50;99.90;;;;;;5092459;28;20051;-65
2022/10/04 12:29:41;;;;;;;1999.90;999.90;;;18.40;99.90;;;;;;5121038;27;20649;-65
2022/10/04 12:32:15;;;;;;;1999.90;999.90;;;18.30;99.90;;;;;;5099832;28;20039;-65
2022/10/04 12:34:47;;;;;;;1999.90;999.90;;;18.20;99.90;;;;;;5109974;28;20043;-64
2022/10/04 12:37:40;;;;;;;1999.90;999.90;;;18.00;99.90;;;;;;5062197;28;20089;-65
2022/10/04 12:40:20;;;;;;;1999.90;999.90;;;17.90;99.90;;;;;;5119708;27;20043;-64
2022/10/04 12:43:01;;;;;;;1999.90;999.90;;;17.80;99.90;;;;;;5110904;28;20036;-64
2022/10/04 12:45:27;;;;;;;1999.90;999.90;;;17.80;99.90;;;;;;5104441;28;20378;-64
2022/10/04 12:48:23;;;;;;;1999.90;999.90;;;17.70;99.90;;;;;;5094052;28;20046;-64
2022/10/04 12:51:10;;;;;;;1999.90;999.90;;;17.70;99.90;;;;;;5108653;28;20027;-64
2022/10/04 12:53:56;;;;;;;1999.90;999.90;;;17.60;99.90;;;;;;5098928;27;20129;-64
2022/10/04 12:56:38;;;;;;;1999.90;999.90;;;17.60;99.90;;;;;;5091330;28;20035;-64
2022/10/04 12:59:21;;;;;;;1999.90;999.90;;;17.50;99.90;;;;;;5071886;28;21459;-64
2022/10/04 13:02:22;;;;;;;1999.90;999.90;;;17.50;99.90;;;;;;5100408;28;20039;-64
2022/10/04 13:04:53;;;;;;;1999.90;999.90;;;17.40;99.90;;;;;;5042120;28;20045;-64
2022/10/04 13:07:41;;;;;;;1999.90;999.90;;;17.40;99.90;;;;;;5115399;27;20474;-65
2022/10/04 13:10:38;;;;;;;1999.90;999.90;;;17.40;99.90;;;;;;5102354;28;20374;-64
2022/10/04 13:13:26;;;;;;;1999.90;999.90;;;17.40;99.90;;;;;;5114272;27;20513;-64
2022/10/04 13:16:34;;;;;;;1999.90;999.90;;;17.50;99.90;;;;;;5088065;28;20413;-64
2022/10/04 13:19:37;;;;;;;1999.90;999.90;;;17.40;99.90;;;;;;5066579;28;20059;-64
2022/10/04 13:22:27;;;;;;;1999.90;999.90;;;17.50;99.90;;;;;;5053885;28;20048;-65